createdAt,value
2017-07-23T00:00:11.497Z,0
2017-07-23T00:01:33.356Z,0
2017-07-23T00:02:55.817Z,0
2017-07-23T00:04:17.920Z,0
2017-07-23T00:05:40.424Z,0
2017-07-23T00:07:02.696Z,0
2017-07-23T00:08:25.205Z,0
2017-07-23T00:09:47.320Z,0
2017-07-23T00:11:08.875Z,0
2017-07-23T00:12:30.849Z,0
2017-07-23T00:13:53.006Z,0
2017-07-23T00:15:15.169Z,0
2017-07-23T00:16:36.996Z,0
2017-07-23T00:17:59.148Z,0
2017-07-23T00:19:21.306Z,0
2017-07-23T00:20:42.837Z,0
2017-07-23T00:22:05.083Z,0
2017-07-23T00:23:27.246Z,0
2017-07-23T00:24:48.756Z,0
2017-07-23T00:26:10.918Z,0
2017-07-23T00:27:33.386Z,0
2017-07-23T00:28:54.893Z,0
2017-07-23T00:30:17.104Z,0
2017-07-23T00:31:39.187Z,0
2017-07-23T00:33:01.346Z,0
2017-07-23T00:34:23.528Z,0
2017-07-23T00:35:45.713Z,0
2017-07-23T00:37:08.407Z,0
2017-07-23T00:38:30.622Z,0
2017-07-23T00:39:52.532Z,0
2017-07-23T00:41:13.737Z,0
2017-07-23T00:42:36.157Z,0
2017-07-23T00:43:58.509Z,0
2017-07-23T00:45:20.679Z,0
2017-07-23T00:46:42.226Z,0
2017-07-23T00:48:04.971Z,0
2017-07-23T00:49:27.145Z,0
2017-07-23T00:50:49.002Z,0
2017-07-23T00:52:11.564Z,0
2017-07-23T00:53:33.372Z,0
2017-07-23T00:54:55.869Z,0
2017-07-23T00:56:18.027Z,0
2017-07-23T00:57:39.854Z,0
2017-07-23T00:59:02.101Z,0
2017-07-23T01:00:24.246Z,0
2017-07-23T01:01:45.771Z,0
2017-07-23T01:03:07.936Z,0
2017-07-23T01:04:30.024Z,0
2017-07-23T01:05:52.204Z,0
2017-07-23T01:07:14.357Z,0
2017-07-23T01:08:36.196Z,0
2017-07-23T01:09:58.588Z,0
2017-07-23T01:11:21.065Z,0
2017-07-23T01:12:43.216Z,0
2017-07-23T01:14:05.391Z,0
2017-07-23T01:15:27.820Z,0
2017-07-23T01:16:49.327Z,0
2017-07-23T01:18:10.962Z,0
2017-07-23T01:19:32.927Z,0
2017-07-23T01:20:55.351Z,0
2017-07-23T01:22:17.178Z,0
2017-07-23T01:23:39.007Z,0
2017-07-23T01:25:00.870Z,0
2017-07-23T01:26:22.756Z,0
2017-07-23T01:27:44.658Z,0
2017-07-23T01:29:07.147Z,0
2017-07-23T01:30:29.639Z,0
2017-07-23T01:31:51.442Z,0
2017-07-23T01:33:12.963Z,0
2017-07-23T01:34:35.228Z,0
2017-07-23T01:35:57.078Z,0
2017-07-23T01:37:19.917Z,0
2017-07-23T01:38:41.807Z,0
2017-07-23T01:40:04.008Z,0
2017-07-23T01:41:25.870Z,0
2017-07-23T01:42:48.013Z,0
2017-07-23T01:44:09.657Z,0
2017-07-23T01:45:31.803Z,0
2017-07-23T01:46:54.289Z,0
2017-07-23T01:48:15.849Z,0
2017-07-23T01:49:38.380Z,0
2017-07-23T01:51:00.529Z,0
2017-07-23T01:52:22.378Z,0
2017-07-23T01:53:44.267Z,0
2017-07-23T01:55:06.477Z,0
2017-07-23T01:56:28.346Z,0
2017-07-23T01:57:50.819Z,0
2017-07-23T01:59:13.506Z,0
2017-07-23T02:00:35.387Z,0
2017-07-23T02:01:57.263Z,0
2017-07-23T02:03:19.125Z,0
2017-07-23T02:04:41.677Z,0
2017-07-23T02:06:03.569Z,0
2017-07-23T02:07:25.396Z,0
2017-07-23T02:08:47.285Z,0
2017-07-23T02:10:10.067Z,0
2017-07-23T02:11:32.230Z,0
2017-07-23T02:12:54.707Z,0
2017-07-23T02:14:17.257Z,0
2017-07-23T02:15:39.736Z,0
2017-07-23T02:17:01.937Z,0
2017-07-23T02:18:24.091Z,0
2017-07-23T02:19:46.716Z,0
2017-07-23T02:21:09.456Z,0
2017-07-23T02:22:31.295Z,0
2017-07-23T02:23:53.147Z,0
2017-07-23T02:25:14.367Z,0
2017-07-23T02:26:36.192Z,0
2017-07-23T02:27:58.035Z,0
2017-07-23T02:29:19.646Z,0
2017-07-23T02:30:41.478Z,0
2017-07-23T02:32:04.228Z,0
2017-07-23T02:33:26.715Z,0
2017-07-23T02:34:48.574Z,0
2017-07-23T02:36:10.096Z,0
2017-07-23T02:37:32.501Z,0
2017-07-23T02:38:54.641Z,0
2017-07-23T02:40:16.497Z,0
2017-07-23T02:41:38.656Z,0
2017-07-23T02:43:01.102Z,0
2017-07-23T02:44:22.955Z,0
2017-07-23T02:45:45.103Z,0
2017-07-23T02:47:06.954Z,0
2017-07-23T02:48:29.277Z,0
2017-07-23T02:49:51.177Z,0
2017-07-23T02:51:12.728Z,0
2017-07-23T02:52:34.566Z,0
2017-07-23T02:53:56.977Z,0
2017-07-23T02:55:19.127Z,0
2017-07-23T02:56:41.298Z,0
2017-07-23T02:58:03.325Z,0
2017-07-23T02:59:25.598Z,0
2017-07-23T03:00:48.126Z,0
2017-07-23T03:02:10.284Z,0
2017-07-23T03:03:32.127Z,0
2017-07-23T03:04:54.856Z,0
2017-07-23T03:06:16.376Z,0
2017-07-23T03:07:38.518Z,0
2017-07-23T03:09:01.046Z,0
2017-07-23T03:10:23.805Z,0
2017-07-23T03:11:44.691Z,0
2017-07-23T03:13:06.537Z,0
2017-07-23T03:14:28.066Z,0
2017-07-23T03:15:50.196Z,0
2017-07-23T03:17:12.336Z,0
2017-07-23T03:18:33.858Z,0
2017-07-23T03:19:55.364Z,0
2017-07-23T03:21:17.125Z,0
2017-07-23T03:22:39.583Z,0
2017-07-23T03:24:01.426Z,0
2017-07-23T03:25:23.576Z,0
2017-07-23T03:26:45.732Z,0
2017-07-23T03:28:07.389Z,0
2017-07-23T03:29:29.246Z,0
2017-07-23T03:30:51.726Z,0
2017-07-23T03:32:14.214Z,0
2017-07-23T03:33:36.133Z,0
2017-07-23T03:34:57.022Z,0
2017-07-23T03:36:18.632Z,0
2017-07-23T03:37:41.395Z,0
2017-07-23T03:39:03.548Z,0
2017-07-23T03:40:25.477Z,5
2017-07-23T03:41:47.637Z,5
2017-07-23T03:43:09.475Z,5
2017-07-23T03:44:31.642Z,5
2017-07-23T03:45:53.186Z,5
2017-07-23T03:47:15.411Z,0
2017-07-23T03:48:37.916Z,0
2017-07-23T03:50:00.081Z,5
2017-07-23T03:51:21.983Z,5
2017-07-23T03:52:43.930Z,5
2017-07-23T03:54:06.126Z,5
2017-07-23T03:55:28.675Z,10
2017-07-23T03:56:50.981Z,10
2017-07-23T03:58:12.936Z,10
2017-07-23T03:59:34.752Z,10
2017-07-23T04:00:56.585Z,10
2017-07-23T04:02:18.116Z,10
2017-07-23T04:03:40.290Z,10
2017-07-23T04:05:02.805Z,15
2017-07-23T04:06:25.278Z,15
2017-07-23T04:07:47.131Z,15
2017-07-23T04:09:09.286Z,20
2017-07-23T04:10:31.485Z,20
2017-07-23T04:11:53.691Z,20
2017-07-23T04:13:15.292Z,20
2017-07-23T04:14:37.787Z,20
2017-07-23T04:15:59.876Z,20
2017-07-23T04:17:21.395Z,25
2017-07-23T04:18:42.275Z,20
2017-07-23T04:20:03.796Z,20
2017-07-23T04:21:26.385Z,15
2017-07-23T04:22:48.236Z,15
2017-07-23T04:24:10.388Z,15
2017-07-23T04:25:32.546Z,10
2017-07-23T04:26:55.356Z,10
2017-07-23T04:28:17.219Z,10
2017-07-23T04:29:39.047Z,15
2017-07-23T04:31:00.986Z,20
2017-07-23T04:32:22.776Z,20
2017-07-23T04:33:45.245Z,20
2017-07-23T04:35:06.893Z,25
2017-07-23T04:36:28.736Z,30
2017-07-23T04:37:50.982Z,30
2017-07-23T04:39:12.497Z,30
2017-07-23T04:40:34.356Z,35
2017-07-23T04:41:56.213Z,35
2017-07-23T04:43:17.834Z,35
2017-07-23T04:44:39.980Z,35
2017-07-23T04:46:01.807Z,40
2017-07-23T04:47:23.327Z,45
2017-07-23T04:48:45.725Z,50
2017-07-23T04:50:07.945Z,55
2017-07-23T04:51:29.465Z,55
2017-07-23T04:52:51.293Z,60
2017-07-23T04:54:13.066Z,55
2017-07-23T04:55:34.951Z,50
2017-07-23T04:56:56.148Z,50
2017-07-23T04:58:17.713Z,50
2017-07-23T04:59:39.635Z,60
2017-07-23T05:01:01.516Z,65
2017-07-23T05:02:23.722Z,70
2017-07-23T05:03:45.549Z,65
2017-07-23T05:05:07.945Z,55
2017-07-23T05:06:30.092Z,55
2017-07-23T05:07:52.049Z,55
2017-07-23T05:09:14.250Z,55
2017-07-23T05:10:36.734Z,50
2017-07-23T05:11:58.876Z,45
2017-07-23T05:13:20.713Z,40
2017-07-23T05:14:42.254Z,40
2017-07-23T05:16:04.435Z,35
2017-07-23T05:17:25.974Z,40
2017-07-23T05:18:47.805Z,45
2017-07-23T05:20:09.963Z,50
2017-07-23T05:21:31.835Z,65
2017-07-23T05:22:53.995Z,75
2017-07-23T05:24:16.446Z,80
2017-07-23T05:25:37.963Z,75
2017-07-23T05:27:00.546Z,65
2017-07-23T05:28:22.377Z,55
2017-07-23T05:29:44.287Z,60
2017-07-23T05:31:06.946Z,60
2017-07-23T05:32:28.695Z,45
2017-07-23T05:33:50.917Z,45
2017-07-23T05:35:12.745Z,45
2017-07-23T05:36:35.011Z,55
2017-07-23T05:37:56.538Z,65
2017-07-23T05:39:18.686Z,60
2017-07-23T05:40:40.230Z,50
2017-07-23T05:42:02.376Z,50
2017-07-23T05:43:24.760Z,65
2017-07-23T05:44:46.904Z,70
2017-07-23T05:46:08.848Z,65
2017-07-23T05:47:31.067Z,60
2017-07-23T05:48:53.573Z,50
2017-07-23T05:50:16.160Z,35
2017-07-23T05:51:38.005Z,30
2017-07-23T05:52:59.311Z,25
2017-07-23T05:54:21.850Z,20
2017-07-23T05:55:43.364Z,15
2017-07-23T05:57:05.247Z,20
2017-07-23T05:58:27.402Z,20
2017-07-23T05:59:49.837Z,15
2017-07-23T06:01:12.005Z,10
2017-07-23T06:02:34.176Z,15
2017-07-23T06:03:55.693Z,30
2017-07-23T06:05:17.826Z,40
2017-07-23T06:06:40.000Z,35
2017-07-23T06:08:02.164Z,40
2017-07-23T06:09:23.373Z,45
2017-07-23T06:10:45.477Z,55
2017-07-23T06:12:07.663Z,60
2017-07-23T06:13:29.178Z,55
2017-07-23T06:14:50.996Z,35
2017-07-23T06:16:12.914Z,20
2017-07-23T06:17:34.767Z,25
2017-07-23T06:18:56.656Z,25
2017-07-23T06:20:18.236Z,45
2017-07-23T06:21:40.643Z,50
2017-07-23T06:23:02.166Z,50
2017-07-23T06:24:24.406Z,55
2017-07-23T06:25:46.565Z,40
2017-07-23T06:27:09.082Z,30
2017-07-23T06:28:31.215Z,35
2017-07-23T06:29:53.044Z,50
2017-07-23T06:31:14.903Z,60
2017-07-23T06:32:37.676Z,65
2017-07-23T06:33:59.831Z,75
2017-07-23T06:35:21.035Z,80
2017-07-23T06:36:43.222Z,90
2017-07-23T06:38:05.403Z,125
2017-07-23T06:39:26.908Z,145
2017-07-23T06:40:49.365Z,135
2017-07-23T06:42:11.231Z,115
2017-07-23T06:43:33.821Z,60
2017-07-23T06:44:55.658Z,50
2017-07-23T06:46:17.825Z,60
2017-07-23T06:47:40.087Z,70
2017-07-23T06:49:02.518Z,70
2017-07-23T06:50:25.034Z,60
2017-07-23T06:51:46.565Z,35
2017-07-23T06:53:08.724Z,30
2017-07-23T06:54:31.194Z,25
2017-07-23T06:55:53.694Z,30
2017-07-23T06:57:15.966Z,35
2017-07-23T06:58:37.856Z,80
2017-07-23T07:00:00.458Z,85
2017-07-23T07:01:22.609Z,75
2017-07-23T07:02:44.435Z,45
2017-07-23T07:04:06.007Z,45
2017-07-23T07:05:28.093Z,45
2017-07-23T07:06:50.594Z,55
2017-07-23T07:08:12.749Z,60
2017-07-23T07:09:34.595Z,65
2017-07-23T07:10:56.796Z,70
2017-07-23T07:12:18.947Z,90
2017-07-23T07:13:41.155Z,110
2017-07-23T07:15:03.059Z,90
2017-07-23T07:16:25.273Z,75
2017-07-23T07:17:47.115Z,70
2017-07-23T07:19:09.044Z,115
2017-07-23T07:20:31.318Z,130
2017-07-23T07:21:53.110Z,150
2017-07-23T07:23:15.575Z,240
2017-07-23T07:24:36.777Z,255
2017-07-23T07:25:58.956Z,255
2017-07-23T07:27:21.742Z,325
2017-07-23T07:28:43.915Z,315
2017-07-23T07:30:05.456Z,315
2017-07-23T07:31:27.605Z,290
2017-07-23T07:32:49.698Z,280
2017-07-23T07:34:11.546Z,275
2017-07-23T07:35:33.450Z,275
2017-07-23T07:36:55.596Z,295
2017-07-23T07:38:18.468Z,335
2017-07-23T07:39:40.954Z,370
2017-07-23T07:41:03.114Z,380
2017-07-23T07:42:25.244Z,390
2017-07-23T07:43:47.653Z,405
2017-07-23T07:45:09.507Z,415
2017-07-23T07:46:31.684Z,415
2017-07-23T07:47:53.837Z,645
2017-07-23T07:49:16.278Z,725
2017-07-23T07:50:38.936Z,745
2017-07-23T07:52:01.407Z,515
2017-07-23T07:53:22.949Z,655
2017-07-23T07:54:45.055Z,630
2017-07-23T07:56:06.606Z,430
2017-07-23T07:57:28.783Z,560
2017-07-23T07:58:50.937Z,465
2017-07-23T08:00:13.769Z,460
2017-07-23T08:01:36.259Z,695
2017-07-23T08:02:58.776Z,490
2017-07-23T08:04:20.626Z,440
2017-07-23T08:05:43.706Z,425
2017-07-23T08:07:05.917Z,365
2017-07-23T08:08:28.405Z,330
2017-07-23T08:09:50.238Z,640
2017-07-23T08:11:12.724Z,540
2017-07-23T08:12:34.893Z,485
2017-07-23T08:13:56.496Z,425
2017-07-23T08:15:18.996Z,405
2017-07-23T08:16:41.458Z,380
2017-07-23T08:18:03.322Z,370
2017-07-23T08:19:25.173Z,440
2017-07-23T08:20:47.399Z,445
2017-07-23T08:22:09.916Z,485
2017-07-23T08:23:31.795Z,540
2017-07-23T08:24:53.963Z,585
2017-07-23T08:26:16.515Z,585
2017-07-23T08:27:38.794Z,520
2017-07-23T08:29:00.977Z,430
2017-07-23T08:30:23.619Z,470
2017-07-23T08:31:46.262Z,425
2017-07-23T08:33:08.352Z,535
2017-07-23T08:34:30.846Z,640
2017-07-23T08:35:53.335Z,610
2017-07-23T08:37:15.866Z,565
2017-07-23T08:38:38.655Z,465
2017-07-23T08:40:00.613Z,370
2017-07-23T08:41:22.476Z,425
2017-07-23T08:42:44.337Z,255
2017-07-23T08:44:06.906Z,170
2017-07-23T08:45:29.185Z,160
2017-07-23T08:46:51.341Z,260
2017-07-23T08:48:13.947Z,525
2017-07-23T08:49:36.357Z,425
2017-07-23T08:50:58.615Z,510
2017-07-23T08:52:21.117Z,500
2017-07-23T08:53:43.286Z,500
2017-07-23T08:55:06.066Z,535
2017-07-23T08:56:28.306Z,420
2017-07-23T08:57:50.527Z,405
2017-07-23T08:59:13.044Z,400
2017-07-23T09:00:35.331Z,445
2017-07-23T09:01:57.259Z,340
2017-07-23T09:03:19.815Z,375
2017-07-23T09:04:41.986Z,385
2017-07-23T09:06:03.948Z,360
2017-07-23T09:07:25.807Z,390
2017-07-23T09:08:48.136Z,360
2017-07-23T09:10:10.708Z,350
2017-07-23T09:11:33.497Z,330
2017-07-23T09:12:55.746Z,355
2017-07-23T09:14:18.225Z,365
2017-07-23T09:15:40.137Z,395
2017-07-23T09:17:02.940Z,410
2017-07-23T09:18:25.165Z,375
2017-07-23T09:19:47.025Z,405
2017-07-23T09:21:09.555Z,415
2017-07-23T09:22:32.047Z,385
2017-07-23T09:23:53.951Z,360
2017-07-23T09:25:15.796Z,415
2017-07-23T09:26:37.946Z,450
2017-07-23T09:27:59.895Z,420
2017-07-23T09:29:22.417Z,465
2017-07-23T09:30:44.339Z,430
2017-07-23T09:32:06.605Z,365
2017-07-23T09:33:29.507Z,335
2017-07-23T09:34:51.044Z,300
2017-07-23T09:36:12.586Z,335
2017-07-23T09:37:34.756Z,365
2017-07-23T09:38:57.288Z,415
2017-07-23T09:40:19.518Z,455
2017-07-23T09:41:42.106Z,480
2017-07-23T09:43:04.586Z,485
2017-07-23T09:44:27.046Z,495
2017-07-23T09:45:49.277Z,475
2017-07-23T09:47:11.510Z,505
2017-07-23T09:48:33.808Z,460
2017-07-23T09:49:56.356Z,445
2017-07-23T09:51:18.540Z,465
2017-07-23T09:52:41.027Z,440
2017-07-23T09:54:03.186Z,405
2017-07-23T09:55:25.426Z,375
2017-07-23T09:56:47.267Z,365
2017-07-23T09:58:09.725Z,340
2017-07-23T09:59:32.416Z,345
2017-07-23T10:00:55.223Z,330
2017-07-23T10:02:17.416Z,365
2017-07-23T10:03:39.895Z,410
2017-07-23T10:05:02.082Z,485
2017-07-23T10:06:24.600Z,495
2017-07-23T10:07:47.158Z,450
2017-07-23T10:09:09.707Z,400
2017-07-23T10:10:31.930Z,340
2017-07-23T10:11:54.441Z,300
2017-07-23T10:13:16.972Z,280
2017-07-23T10:14:39.228Z,290
2017-07-23T10:16:01.086Z,305
2017-07-23T10:17:23.538Z,340
2017-07-23T10:18:45.568Z,405
2017-07-23T10:20:08.057Z,400
2017-07-23T10:21:30.273Z,385
2017-07-23T10:22:53.012Z,385
2017-07-23T10:24:15.200Z,430
2017-07-23T10:25:37.699Z,445
2017-07-23T10:26:59.558Z,460
2017-07-23T10:28:21.747Z,475
2017-07-23T10:29:43.327Z,465
2017-07-23T10:31:05.787Z,420
2017-07-23T10:32:27.697Z,405
2017-07-23T10:33:49.539Z,460
2017-07-23T10:35:11.697Z,550
2017-07-23T10:36:33.268Z,590
2017-07-23T10:37:55.780Z,545
2017-07-23T10:39:18.409Z,465
2017-07-23T10:40:40.908Z,430
2017-07-23T10:42:03.177Z,420
2017-07-23T10:43:25.397Z,365
2017-07-23T10:44:47.508Z,295
2017-07-23T10:46:09.985Z,225
2017-07-23T10:47:32.523Z,195
2017-07-23T10:48:54.569Z,275
2017-07-23T10:50:17.298Z,360
2017-07-23T10:51:39.496Z,435
2017-07-23T10:53:01.357Z,460
2017-07-23T10:54:23.918Z,450
2017-07-23T10:55:46.129Z,460
2017-07-23T10:57:08.640Z,485
2017-07-23T10:58:30.522Z,515
2017-07-23T10:59:52.392Z,550
2017-07-23T11:01:15.280Z,535
2017-07-23T11:02:37.683Z,485
2017-07-23T11:03:59.677Z,470
2017-07-23T11:05:22.218Z,485
2017-07-23T11:06:44.739Z,500
2017-07-23T11:08:07.250Z,515
2017-07-23T11:09:29.788Z,510
2017-07-23T11:10:52.451Z,515
2017-07-23T11:12:15.796Z,485
2017-07-23T11:13:37.966Z,475
2017-07-23T11:15:00.229Z,405
2017-07-23T11:16:23.110Z,400
2017-07-23T11:17:45.238Z,395
2017-07-23T11:19:07.810Z,365
2017-07-23T11:20:29.976Z,360
2017-07-23T11:21:52.180Z,355
2017-07-23T11:23:14.830Z,305
2017-07-23T11:24:36.788Z,360
2017-07-23T11:25:59.048Z,340
2017-07-23T11:27:21.270Z,380
2017-07-23T11:28:43.468Z,380
2017-07-23T11:30:06.059Z,375
2017-07-23T11:31:28.333Z,390
2017-07-23T11:32:50.873Z,430
2017-07-23T11:34:13.674Z,405
2017-07-23T11:35:35.558Z,450
2017-07-23T11:36:58.069Z,435
2017-07-23T11:38:20.246Z,460
2017-07-23T11:39:43.077Z,435
2017-07-23T11:41:05.058Z,365
2017-07-23T11:42:27.567Z,350
2017-07-23T11:43:49.470Z,360
2017-07-23T11:45:12.019Z,370
2017-07-23T11:46:34.543Z,370
2017-07-23T11:47:56.280Z,400
2017-07-23T11:49:18.127Z,380
2017-07-23T11:50:40.857Z,320
2017-07-23T11:52:03.083Z,290
2017-07-23T11:53:25.700Z,270
2017-07-23T11:54:47.869Z,265
2017-07-23T11:56:10.354Z,315
2017-07-23T11:57:32.574Z,355
2017-07-23T11:58:54.449Z,350
2017-07-23T12:00:16.644Z,340
2017-07-23T12:01:39.186Z,410
2017-07-23T12:03:00.717Z,435
2017-07-23T12:04:22.898Z,440
2017-07-23T12:05:45.140Z,415
2017-07-23T12:07:07.894Z,340
2017-07-23T12:08:30.087Z,275
2017-07-23T12:09:51.707Z,255
2017-07-23T12:11:13.888Z,255
2017-07-23T12:12:36.027Z,285
2017-07-23T12:13:57.994Z,315
2017-07-23T12:15:20.183Z,365
2017-07-23T12:16:41.767Z,335
2017-07-23T12:18:04.289Z,325
2017-07-23T12:19:25.839Z,335
2017-07-23T12:20:48.346Z,345
2017-07-23T12:22:10.555Z,340
2017-07-23T12:23:32.398Z,300
2017-07-23T12:24:55.048Z,270
2017-07-23T12:26:17.566Z,275
2017-07-23T12:27:39.417Z,285
2017-07-23T12:29:01.958Z,305
2017-07-23T12:30:24.136Z,300
2017-07-23T12:31:46.008Z,270
2017-07-23T12:33:08.251Z,245
2017-07-23T12:34:31.062Z,225
2017-07-23T12:35:52.947Z,210
2017-07-23T12:37:16.201Z,205
2017-07-23T12:38:38.329Z,195
2017-07-23T12:40:00.460Z,200
2017-07-23T12:41:22.668Z,190
2017-07-23T12:42:45.247Z,165
2017-07-23T12:44:07.547Z,195
2017-07-23T12:45:30.434Z,235
2017-07-23T12:46:52.935Z,185
2017-07-23T12:48:15.417Z,205
2017-07-23T12:49:38.028Z,245
2017-07-23T12:50:59.508Z,280
2017-07-23T12:52:21.404Z,240
2017-07-23T12:53:43.627Z,215
2017-07-23T12:55:06.207Z,275
2017-07-23T12:56:28.050Z,310
2017-07-23T12:57:49.794Z,290
2017-07-23T12:59:11.970Z,245
2017-07-23T13:00:34.157Z,225
2017-07-23T13:01:56.681Z,210
2017-07-23T13:03:19.171Z,215
2017-07-23T13:04:41.647Z,205
2017-07-23T13:06:04.139Z,205
2017-07-23T13:07:25.939Z,200
2017-07-23T13:08:48.425Z,245
2017-07-23T13:10:10.604Z,260
2017-07-23T13:11:33.090Z,275
2017-07-23T13:12:55.325Z,270
2017-07-23T13:14:17.597Z,330
2017-07-23T13:15:39.746Z,325
2017-07-23T13:17:01.588Z,325
2017-07-23T13:18:23.993Z,285
2017-07-23T13:19:46.556Z,295
2017-07-23T13:21:08.734Z,340
2017-07-23T13:22:31.076Z,310
2017-07-23T13:23:53.518Z,295
2017-07-23T13:25:15.535Z,295
2017-07-23T13:26:37.682Z,305
2017-07-23T13:28:00.240Z,305
2017-07-23T13:29:22.427Z,295
2017-07-23T13:30:44.062Z,300
2017-07-23T13:32:06.065Z,280
2017-07-23T13:33:28.615Z,260
2017-07-23T13:34:51.355Z,245
2017-07-23T13:36:13.516Z,215
2017-07-23T13:37:35.818Z,255
2017-07-23T13:38:58.037Z,275
2017-07-23T13:40:20.254Z,360
2017-07-23T13:41:42.726Z,445
2017-07-23T13:43:04.686Z,440
2017-07-23T13:44:26.521Z,395
2017-07-23T13:45:48.691Z,365
2017-07-23T13:47:10.847Z,345
2017-07-23T13:48:33.118Z,330
2017-07-23T13:49:55.285Z,335
2017-07-23T13:51:16.796Z,355
2017-07-23T13:52:38.625Z,410
2017-07-23T13:54:00.801Z,440
2017-07-23T13:55:23.006Z,465
2017-07-23T13:56:44.527Z,500
2017-07-23T13:58:06.496Z,460
2017-07-23T13:59:28.715Z,440
2017-07-23T14:00:50.901Z,420
2017-07-23T14:02:13.446Z,390
2017-07-23T14:03:35.976Z,370
2017-07-23T14:04:57.583Z,345
2017-07-23T14:06:19.446Z,345
2017-07-23T14:07:41.928Z,355
2017-07-23T14:09:03.826Z,365
2017-07-23T14:10:25.678Z,385
2017-07-23T14:11:47.846Z,400
2017-07-23T14:13:09.695Z,385
2017-07-23T14:14:31.566Z,385
2017-07-23T14:15:53.787Z,355
2017-07-23T14:17:15.944Z,350
2017-07-23T14:18:37.808Z,320
2017-07-23T14:20:00.097Z,325
2017-07-23T14:21:22.256Z,315
2017-07-23T14:22:44.435Z,360
2017-07-23T14:24:07.217Z,395
2017-07-23T14:25:29.074Z,415
2017-07-23T14:26:50.634Z,440
2017-07-23T14:28:12.820Z,440
2017-07-23T14:29:35.055Z,435
2017-07-23T14:30:56.929Z,395
2017-07-23T14:32:19.117Z,365
2017-07-23T14:33:41.609Z,360
2017-07-23T14:35:04.119Z,375
2017-07-23T14:36:26.616Z,355
2017-07-23T14:37:49.146Z,365
2017-07-23T14:39:11.314Z,370
2017-07-23T14:40:33.943Z,375
2017-07-23T14:41:56.175Z,355
2017-07-23T14:43:18.354Z,345
2017-07-23T14:44:39.943Z,290
2017-07-23T14:46:02.085Z,245
2017-07-23T14:47:23.307Z,240
2017-07-23T14:48:45.470Z,235
2017-07-23T14:50:07.706Z,260
2017-07-23T14:51:30.305Z,265
2017-07-23T14:52:52.157Z,250
2017-07-23T14:54:14.376Z,235
2017-07-23T14:55:35.606Z,230
2017-07-23T14:56:57.748Z,210
2017-07-23T14:58:19.601Z,195
2017-07-23T14:59:41.785Z,190
2017-07-23T15:01:04.307Z,195
2017-07-23T15:02:26.410Z,190
2017-07-23T15:03:48.616Z,190
2017-07-23T15:05:11.165Z,185
2017-07-23T15:06:33.642Z,180
2017-07-23T15:07:55.800Z,180
2017-07-23T15:09:17.655Z,175
2017-07-23T15:10:39.852Z,175
2017-07-23T15:12:02.099Z,175
2017-07-23T15:13:24.581Z,170
2017-07-23T15:14:46.896Z,170
2017-07-23T15:16:09.384Z,180
2017-07-23T15:17:31.005Z,190
2017-07-23T15:18:53.582Z,180
2017-07-23T15:20:15.538Z,195
2017-07-23T15:21:37.083Z,190
2017-07-23T15:22:58.714Z,180
2017-07-23T15:24:21.315Z,180
2017-07-23T15:25:43.454Z,175
2017-07-23T15:27:05.314Z,170
2017-07-23T15:28:27.796Z,175
2017-07-23T15:29:49.706Z,215
2017-07-23T15:31:11.884Z,235
2017-07-23T15:32:34.396Z,230
2017-07-23T15:33:56.294Z,250
2017-07-23T15:35:18.222Z,290
2017-07-23T15:36:40.089Z,285
2017-07-23T15:38:02.257Z,300
2017-07-23T15:39:24.117Z,305
2017-07-23T15:40:46.895Z,285
2017-07-23T15:42:09.421Z,270
2017-07-23T15:43:31.677Z,265
2017-07-23T15:44:54.184Z,275
2017-07-23T15:46:16.170Z,270
2017-07-23T15:47:38.344Z,245
2017-07-23T15:49:00.845Z,220
2017-07-23T15:50:22.844Z,230
2017-07-23T15:51:44.612Z,240
2017-07-23T15:53:06.835Z,245
2017-07-23T15:54:29.599Z,245
2017-07-23T15:55:51.765Z,225
2017-07-23T15:57:13.644Z,215
2017-07-23T15:58:35.547Z,215
2017-07-23T15:59:57.754Z,215
2017-07-23T16:01:20.010Z,225
2017-07-23T16:02:42.434Z,240
2017-07-23T16:04:04.274Z,235
2017-07-23T16:05:26.843Z,230
2017-07-23T16:06:48.405Z,250
2017-07-23T16:08:11.188Z,280
2017-07-23T16:09:32.725Z,290
2017-07-23T16:10:54.885Z,285
2017-07-23T16:12:16.402Z,280
2017-07-23T16:13:38.867Z,280
2017-07-23T16:15:00.418Z,270
2017-07-23T16:16:22.664Z,265
2017-07-23T16:17:44.188Z,265
2017-07-23T16:19:06.127Z,265
2017-07-23T16:20:28.682Z,240
2017-07-23T16:21:51.172Z,230
2017-07-23T16:23:13.415Z,210
2017-07-23T16:24:35.865Z,200
2017-07-23T16:25:58.377Z,210
2017-07-23T16:27:20.294Z,215
2017-07-23T16:28:42.517Z,210
2017-07-23T16:30:05.178Z,210
2017-07-23T16:31:27.044Z,205
2017-07-23T16:32:49.601Z,205
2017-07-23T16:34:11.795Z,190
2017-07-23T16:35:34.061Z,190
2017-07-23T16:36:56.253Z,185
2017-07-23T16:38:18.577Z,185
2017-07-23T16:39:40.775Z,185
2017-07-23T16:41:02.968Z,200
2017-07-23T16:42:24.872Z,210
2017-07-23T16:43:47.378Z,205
2017-07-23T16:45:09.865Z,195
2017-07-23T16:46:32.415Z,180
2017-07-23T16:47:54.925Z,180
2017-07-23T16:49:17.103Z,195
2017-07-23T16:50:39.274Z,195
2017-07-23T16:52:02.064Z,195
2017-07-23T16:53:24.765Z,195
2017-07-23T16:54:47.272Z,195
2017-07-23T16:56:09.856Z,190
2017-07-23T16:57:32.316Z,185
2017-07-23T16:58:54.545Z,185
2017-07-23T17:00:17.036Z,175
2017-07-23T17:01:39.526Z,170
2017-07-23T17:03:01.953Z,165
2017-07-23T17:04:24.464Z,165
2017-07-23T17:05:46.956Z,155
2017-07-23T17:07:09.456Z,140
2017-07-23T17:08:31.875Z,130
2017-07-23T17:09:54.402Z,110
2017-07-23T17:11:16.273Z,90
2017-07-23T17:12:38.795Z,75
2017-07-23T17:14:01.324Z,70
2017-07-23T17:15:23.187Z,70
2017-07-23T17:16:45.039Z,65
2017-07-23T17:18:07.237Z,65
2017-07-23T17:19:29.965Z,65
2017-07-23T17:20:52.473Z,65
2017-07-23T17:22:14.970Z,70
2017-07-23T17:23:37.298Z,75
2017-07-23T17:25:00.061Z,75
2017-07-23T17:26:22.555Z,85
2017-07-23T17:27:45.130Z,90
2017-07-23T17:29:07.064Z,100
2017-07-23T17:30:29.596Z,115
2017-07-23T17:31:51.787Z,130
2017-07-23T17:33:14.078Z,145
2017-07-23T17:34:36.334Z,150
2017-07-23T17:35:58.845Z,140
2017-07-23T17:37:21.050Z,145
2017-07-23T17:38:43.537Z,150
2017-07-23T17:40:06.205Z,150
2017-07-23T17:41:28.705Z,145
2017-07-23T17:42:51.305Z,140
2017-07-23T17:44:13.167Z,140
2017-07-23T17:45:35.398Z,140
2017-07-23T17:46:57.825Z,145
2017-07-23T17:48:20.064Z,145
2017-07-23T17:49:42.555Z,140
2017-07-23T17:51:05.104Z,140
2017-07-23T17:52:27.563Z,135
2017-07-23T17:53:49.475Z,135
2017-07-23T17:55:11.954Z,135
2017-07-23T17:56:34.555Z,135
2017-07-23T17:57:56.406Z,135
2017-07-23T17:59:18.996Z,135
2017-07-23T18:00:41.498Z,135
2017-07-23T18:02:03.665Z,130
2017-07-23T18:03:26.255Z,130
2017-07-23T18:04:48.812Z,120
2017-07-23T18:06:11.043Z,115
2017-07-23T18:07:33.705Z,105
2017-07-23T18:08:56.484Z,100
2017-07-23T18:10:18.356Z,100
2017-07-23T18:11:40.579Z,95
2017-07-23T18:13:02.771Z,95
2017-07-23T18:14:25.256Z,90
2017-07-23T18:15:47.392Z,90
2017-07-23T18:17:09.868Z,90
2017-07-23T18:18:32.375Z,90
2017-07-23T18:19:54.816Z,85
2017-07-23T18:21:17.114Z,85
2017-07-23T18:22:38.999Z,85
2017-07-23T18:24:00.855Z,80
2017-07-23T18:25:23.370Z,80
2017-07-23T18:26:45.241Z,80
2017-07-23T18:28:07.103Z,80
2017-07-23T18:29:29.668Z,75
2017-07-23T18:30:52.488Z,75
2017-07-23T18:32:14.644Z,75
2017-07-23T18:33:36.516Z,75
2017-07-23T18:34:58.710Z,70
2017-07-23T18:36:21.232Z,70
2017-07-23T18:37:43.727Z,70
2017-07-23T18:39:05.924Z,65
2017-07-23T18:40:28.435Z,60
2017-07-23T18:41:50.893Z,60
2017-07-23T18:43:13.546Z,55
2017-07-23T18:44:35.816Z,55
2017-07-23T18:45:58.175Z,55
2017-07-23T18:47:21.019Z,50
2017-07-23T18:48:43.187Z,45
2017-07-23T18:50:05.725Z,40
2017-07-23T18:51:28.277Z,40
2017-07-23T18:52:50.841Z,35
2017-07-23T18:54:13.038Z,35
2017-07-23T18:55:34.899Z,35
2017-07-23T18:56:57.087Z,30
2017-07-23T18:58:19.896Z,25
2017-07-23T18:59:41.846Z,25
2017-07-23T19:01:04.037Z,20
2017-07-23T19:02:26.536Z,15
2017-07-23T19:03:48.975Z,15
2017-07-23T19:05:11.525Z,15
2017-07-23T19:06:34.012Z,15
2017-07-23T19:07:56.210Z,15
2017-07-23T19:09:19.015Z,15
2017-07-23T19:10:41.608Z,10
2017-07-23T19:12:03.855Z,10
2017-07-23T19:13:26.435Z,10
2017-07-23T19:14:49.196Z,10
2017-07-23T19:16:11.704Z,10
2017-07-23T19:17:34.064Z,10